Trans Exeter — 9HA2572 — position and weather

sailwx.info

Track history (hours):
 
Tides and Currents Weather Stations Pressure Air Temp Water Temp Dewpoint Dewpoint Depression Visibility Wind Speed Wind Dir Waves Ship Positions

Trans Exeter

Last reported at 2015-Mar-04 15:23 UTC. Time now 2015-Mar-04 16:44 UTC.
Position N 51°18' E 004°20'.

Length 118 m; draft 6.8 m.

Type: Ship (hazmat cat C). MMSI: 248908000.

Date/timePositionNaut miles runAvg speedWind from/ knotsBaromVisibWave heightAir tempDewpointWater temp
2015-Mar-04 15:23N 51°18' E 004°20'4 4.3
2015-Mar-04 14:33N 51°21' E 004°17'1 1.0
2015-Mar-04 13:34N 51°21' E 004°16'9 9.4
2015-Mar-04 12:33N 51°25' E 004°02'1111.5
2015-Mar-04 11:33N 51°22' E 003°44'1110.9
2015-Mar-04 10:33N 51°25' E 003°27'1514.6
2015-Mar-04 09:33N 51°24' E 003°03'1212.3
2015-Mar-04 08:33N 51°22' E 002°44'1411.5
2015-Mar-04 07:23N 51°20' E 002°22'1012.5
2015-Mar-04 06:33N 51°14' E 002°09'1312.7
2015-Mar-04 05:33N 51°08' E 001°51'1313.1
2015-Mar-04 04:33N 50°59' E 001°36'  
2015-Mar-01 09:33N 39°04' W 009°56'1614.2
2015-Mar-01 08:24N 38°48' W 009°56'1214.1
2015-Mar-01 07:33N 38°36' W 009°54'1414.1
2015-Mar-01 06:33N 38°23' W 009°50'1414.1
2015-Mar-01 05:33N 38°09' W 009°46'1613.9
2015-Mar-01 04:24N 37°53' W 009°41'22912.2
2015-Feb-28 09:31N 35°59' W 005°32'1212.2
2015-Feb-28 08:34N 36°01' W 005°18'22113.6
2015-Feb-27 16:20N 36°37' W 000°48'  
Track history (hours):
 
Tides and Currents Weather Stations Pressure Air Temp Water Temp Dewpoint Dewpoint Depression Visibility Wind Speed Wind Dir Waves Ship Positions

Trans Exeter

Last reported at 2015-Mar-04 15:23 UTC. Time now 2015-Mar-04 16:44 UTC.
Position N 51°18' E 004°20'.

Length 118 m; draft 6.8 m.

Type: Ship (hazmat cat C). MMSI: 248908000.

Date/timePositionNaut miles runAvg speedWind from/ knotsBaromVisibWave heightAir tempDewpointWater temp
2015-Mar-04 15:23N 51°18' E 004°20'4 4.3
2015-Mar-04 14:33N 51°21' E 004°17'1 1.0
2015-Mar-04 13:34N 51°21' E 004°16'9 9.4
2015-Mar-04 12:33N 51°25' E 004°02'1111.5
2015-Mar-04 11:33N 51°22' E 003°44'1110.9
2015-Mar-04 10:33N 51°25' E 003°27'1514.6
2015-Mar-04 09:33N 51°24' E 003°03'1212.3
2015-Mar-04 08:33N 51°22' E 002°44'1411.5
2015-Mar-04 07:23N 51°20' E 002°22'1012.5
2015-Mar-04 06:33N 51°14' E 002°09'1312.7
2015-Mar-04 05:33N 51°08' E 001°51'1313.1
2015-Mar-04 04:33N 50°59' E 001°36'  
2015-Mar-01 09:33N 39°04' W 009°56'1614.2
2015-Mar-01 08:24N 38°48' W 009°56'1214.1
2015-Mar-01 07:33N 38°36' W 009°54'1414.1
2015-Mar-01 06:33N 38°23' W 009°50'1414.1
2015-Mar-01 05:33N 38°09' W 009°46'1613.9
2015-Mar-01 04:24N 37°53' W 009°41'22912.2
2015-Feb-28 09:31N 35°59' W 005°32'1212.2
2015-Feb-28 08:34N 36°01' W 005°18'22113.6
2015-Feb-27 16:20N 36°37' W 000°48'  

Dump ship's entire track history